createdAt,value
2023-03-22T00:01:19.708Z,5.85
2023-03-22T00:03:47.742Z,6.85
2023-03-22T00:06:16.409Z,5.82
2023-03-22T00:08:43.811Z,5.53
2023-03-22T00:11:11.968Z,6.60
2023-03-22T00:13:39.549Z,5.80
2023-03-22T00:16:07.104Z,5.70
2023-03-22T00:18:34.356Z,5.55
2023-03-22T00:21:01.884Z,5.32
2023-03-22T00:23:29.306Z,5.63
2023-03-22T00:25:56.634Z,5.97
2023-03-22T00:28:24.396Z,5.80
2023-03-22T00:30:52.666Z,5.75
2023-03-22T00:33:20.090Z,5.45
2023-03-22T00:35:51.140Z,5.25
2023-03-22T00:38:18.448Z,6.47
2023-03-22T00:40:46.229Z,6.05
2023-03-22T00:43:13.710Z,5.40
2023-03-22T00:45:41.251Z,5.20
2023-03-22T00:48:09.626Z,4.97
2023-03-22T00:50:37.457Z,5.53
2023-03-22T00:53:05.171Z,5.38
2023-03-22T00:55:32.612Z,5.10
2023-03-22T00:58:00.023Z,5.18
2023-03-22T01:00:27.476Z,4.90
2023-03-22T01:02:59.642Z,5.35
2023-03-22T01:05:28.542Z,5.10
2023-03-22T01:07:56.891Z,5.05
2023-03-22T01:10:24.240Z,4.65
2023-03-22T01:12:51.805Z,4.85
2023-03-22T01:15:19.078Z,5.03
2023-03-22T01:17:46.299Z,4.93
2023-03-22T01:20:13.721Z,4.50
2023-03-22T01:22:41.522Z,4.53
2023-03-22T01:25:08.917Z,5.60
2023-03-22T01:27:36.320Z,5.03
2023-03-22T01:30:03.835Z,4.40
2023-03-22T01:32:31.057Z,4.65
2023-03-22T01:34:58.219Z,4.22
2023-03-22T01:37:27.695Z,4.57
2023-03-22T01:39:58.040Z,4.07
2023-03-22T01:42:27.093Z,4.55
2023-03-22T01:45:12.903Z,4.75
2023-03-22T01:47:46.347Z,4.72
2023-03-22T01:50:14.285Z,4.63
2023-03-22T01:52:41.763Z,4.40
2023-03-22T01:55:09.464Z,4.15
2023-03-22T01:57:37.967Z,4.00
2023-03-22T02:00:10.287Z,4.38
2023-03-22T02:02:37.857Z,4.63
2023-03-22T02:05:05.362Z,4.28
2023-03-22T02:07:32.716Z,3.92
2023-03-22T02:10:00.197Z,3.65
2023-03-22T02:12:50.036Z,4.30
2023-03-22T02:15:23.812Z,4.15
2023-03-22T02:17:54.094Z,4.03
2023-03-22T02:20:39.944Z,4.30
2023-03-22T02:23:10.603Z,3.92
2023-03-22T02:25:53.119Z,4.35
2023-03-22T02:28:35.490Z,3.83
2023-03-22T02:31:05.451Z,4.88
2023-03-22T02:33:41.886Z,4.45
2023-03-22T02:36:09.052Z,4.53
2023-03-22T02:38:52.584Z,3.20
2023-03-22T02:41:35.253Z,3.60
2023-03-22T02:44:06.999Z,4.05
2023-03-22T02:46:51.178Z,4.93
2023-03-22T02:49:27.039Z,3.92
2023-03-22T02:52:20.344Z,4.03
2023-03-22T02:55:06.727Z,3.70
2023-03-22T02:57:37.104Z,4.07
2023-03-22T03:00:13.139Z,3.95
2023-03-22T03:02:46.895Z,4.03
2023-03-22T03:05:15.491Z,3.65
2023-03-22T03:07:45.278Z,3.70
2023-03-22T03:10:14.294Z,4.10
2023-03-22T03:12:41.499Z,4.00
2023-03-22T03:15:27.375Z,3.40
2023-03-22T03:17:59.320Z,4.00
2023-03-22T03:20:37.566Z,3.83
2023-03-22T03:23:24.668Z,3.65
2023-03-22T03:25:58.139Z,3.17
2023-03-22T03:28:49.773Z,3.58
2023-03-22T03:31:22.163Z,3.55
2023-03-22T03:33:55.453Z,3.50
2023-03-22T03:36:23.473Z,3.50
2023-03-22T03:38:52.559Z,3.53
2023-03-22T03:41:22.764Z,3.28
2023-03-22T03:43:51.334Z,3.50
2023-03-22T03:46:18.652Z,3.40
2023-03-22T03:48:48.219Z,3.42
2023-03-22T03:51:15.557Z,3.28
2023-03-22T03:53:42.864Z,3.90
2023-03-22T03:56:10.422Z,3.42
2023-03-22T03:58:46.990Z,3.22
2023-03-22T04:01:14.264Z,3.22
2023-03-22T04:03:41.600Z,3.63
2023-03-22T04:06:09.119Z,3.47
2023-03-22T04:08:36.343Z,3.55
2023-03-22T04:11:03.577Z,3.25
2023-03-22T04:13:30.846Z,3.53
2023-03-22T04:15:58.088Z,3.42
2023-03-22T04:18:27.878Z,3.42
2023-03-22T04:20:56.487Z,3.33
2023-03-22T04:23:25.986Z,3.28
2023-03-22T04:25:54.770Z,2.95
2023-03-22T04:28:22.218Z,3.40
2023-03-22T04:30:52.570Z,3.55
2023-03-22T04:33:23.184Z,3.13
2023-03-22T04:35:56.764Z,3.22
2023-03-22T04:38:27.918Z,3.35
2023-03-22T04:40:55.318Z,3.20
2023-03-22T04:43:22.981Z,3.53
2023-03-22T04:45:50.297Z,3.28
2023-03-22T04:48:20.542Z,3.30
2023-03-22T04:50:47.774Z,3.42
2023-03-22T04:53:14.942Z,3.13
2023-03-22T04:55:43.701Z,3.15
2023-03-22T04:58:10.985Z,2.88
2023-03-22T05:00:38.662Z,2.90
2023-03-22T05:03:06.208Z,3.47
2023-03-22T05:05:33.469Z,3.58
2023-03-22T05:08:01.106Z,3.45
2023-03-22T05:10:28.280Z,3.53
2023-03-22T05:12:55.663Z,3.20
2023-03-22T05:15:22.886Z,3.05
2023-03-22T05:17:50.689Z,3.05
2023-03-22T05:20:17.917Z,2.75
2023-03-22T05:22:45.304Z,3.15
2023-03-22T05:25:12.577Z,3.22
2023-03-22T05:27:39.810Z,3.30
2023-03-22T05:30:07.919Z,4.05
2023-03-22T05:32:37.532Z,4.38
2023-03-22T05:35:04.838Z,4.05
2023-03-22T05:37:32.199Z,4.15
2023-03-22T05:39:59.421Z,3.65
2023-03-22T05:42:27.160Z,4.28
2023-03-22T05:44:54.316Z,4.38
2023-03-22T05:47:22.089Z,4.43
2023-03-22T05:49:49.286Z,4.68
2023-03-22T05:52:16.441Z,4.32
2023-03-22T05:54:43.676Z,3.90
2023-03-22T05:57:11.110Z,4.82
2023-03-22T05:59:38.288Z,5.28
2023-03-22T06:02:05.595Z,4.57
2023-03-22T06:04:32.932Z,5.40
2023-03-22T06:07:00.196Z,4.65
2023-03-22T06:09:27.492Z,3.78
2023-03-22T06:11:54.707Z,4.35
2023-03-22T06:14:21.908Z,4.18
2023-03-22T06:16:49.159Z,4.88
2023-03-22T06:19:16.367Z,5.15
2023-03-22T06:21:43.641Z,5.57
2023-03-22T06:24:11.222Z,5.28
2023-03-22T06:26:38.383Z,4.75
2023-03-22T06:29:05.874Z,4.93
2023-03-22T06:31:33.066Z,5.57
2023-03-22T06:34:00.301Z,5.43
2023-03-22T06:36:27.660Z,4.90
2023-03-22T06:38:54.889Z,5.47
2023-03-22T06:41:22.133Z,6.15
2023-03-22T06:43:49.508Z,5.80
2023-03-22T06:46:16.777Z,6.20
2023-03-22T06:48:43.993Z,5.93
2023-03-22T06:51:11.140Z,5.60
2023-03-22T06:53:38.413Z,5.75
2023-03-22T06:56:05.931Z,5.32
2023-03-22T06:58:33.156Z,5.53
2023-03-22T07:01:00.524Z,5.07
2023-03-22T07:03:27.752Z,5.20
2023-03-22T07:06:02.088Z,5.43
2023-03-22T07:08:29.298Z,5.55
2023-03-22T07:10:56.792Z,6.18
2023-03-22T07:13:24.375Z,5.15
2023-03-22T07:15:56.339Z,5.53
2023-03-22T07:18:23.903Z,4.82
2023-03-22T07:20:51.134Z,5.22
2023-03-22T07:23:18.661Z,5.95
2023-03-22T07:25:46.328Z,5.63
2023-03-22T07:28:13.674Z,5.38
2023-03-22T07:30:41.606Z,5.22
2023-03-22T07:33:09.521Z,6.10
2023-03-22T07:35:37.170Z,5.80
2023-03-22T07:38:04.778Z,4.75
2023-03-22T07:40:32.224Z,6.00
2023-03-22T07:42:59.565Z,5.38
2023-03-22T07:45:26.976Z,5.18
2023-03-22T07:47:54.342Z,5.40
2023-03-22T07:50:21.687Z,4.72
2023-03-22T07:52:49.041Z,5.18
2023-03-22T07:55:16.384Z,4.70
2023-03-22T07:57:43.714Z,4.97
2023-03-22T08:00:11.218Z,5.80
2023-03-22T08:02:39.005Z,4.53
2023-03-22T08:05:07.276Z,4.85
2023-03-22T08:07:34.529Z,4.50
2023-03-22T08:10:01.933Z,5.55
2023-03-22T08:12:29.274Z,5.05
2023-03-22T08:14:56.533Z,4.85
2023-03-22T08:17:23.779Z,5.25
2023-03-22T08:19:51.087Z,5.07
2023-03-22T08:22:18.348Z,5.55
2023-03-22T08:24:45.559Z,5.82
2023-03-22T08:27:14.238Z,5.10
2023-03-22T08:29:41.764Z,4.72
2023-03-22T08:32:09.123Z,5.53
2023-03-22T08:34:40.337Z,4.90
2023-03-22T08:37:07.786Z,5.07
2023-03-22T08:39:35.455Z,5.75
2023-03-22T08:42:02.765Z,5.68
2023-03-22T08:44:30.086Z,5.30
2023-03-22T08:46:57.451Z,5.13
2023-03-22T08:49:24.706Z,5.47
2023-03-22T08:51:52.042Z,5.40
2023-03-22T08:54:19.477Z,5.57
2023-03-22T08:56:46.830Z,5.68
2023-03-22T08:59:14.092Z,5.10
2023-03-22T09:01:41.388Z,5.30
2023-03-22T09:04:10.653Z,6.10
2023-03-22T09:06:38.220Z,5.53
2023-03-22T09:09:05.422Z,5.50
2023-03-22T09:11:32.806Z,4.70
2023-03-22T09:14:00.110Z,5.45
2023-03-22T09:16:27.356Z,5.30
2023-03-22T09:18:54.513Z,5.82
2023-03-22T09:21:21.933Z,5.82
2023-03-22T09:23:50.328Z,5.00
2023-03-22T09:26:17.736Z,5.38
2023-03-22T09:28:46.842Z,5.75
2023-03-22T09:31:14.382Z,5.72
2023-03-22T09:33:42.107Z,5.80
2023-03-22T09:36:10.010Z,6.32
2023-03-22T09:38:37.310Z,5.63
2023-03-22T09:41:06.946Z,6.13
2023-03-22T09:43:38.880Z,6.05
2023-03-22T09:46:08.144Z,5.93
2023-03-22T09:48:36.448Z,5.72
2023-03-22T09:51:05.532Z,6.35
2023-03-22T09:53:33.182Z,5.88
2023-03-22T09:56:23.186Z,6.07
2023-03-22T09:58:53.814Z,6.13
2023-03-22T10:01:31.287Z,6.10
2023-03-22T10:04:07.769Z,5.53
2023-03-22T10:06:35.117Z,6.10
2023-03-22T10:09:24.107Z,5.65
2023-03-22T10:12:05.069Z,6.22
2023-03-22T10:14:43.082Z,5.53
2023-03-22T10:17:12.810Z,5.75
2023-03-22T10:19:46.799Z,6.07
2023-03-22T10:22:18.125Z,6.20
2023-03-22T10:24:47.015Z,6.03
2023-03-22T10:27:18.946Z,6.15
2023-03-22T10:29:49.288Z,6.53
2023-03-22T10:32:30.927Z,5.78
2023-03-22T10:34:58.278Z,6.30
2023-03-22T10:37:29.068Z,6.50
2023-03-22T10:39:57.444Z,6.05
2023-03-22T10:42:25.973Z,5.35
2023-03-22T10:44:58.908Z,5.80
2023-03-22T10:47:34.242Z,5.40
2023-03-22T10:50:03.761Z,5.63
2023-03-22T10:52:31.188Z,5.60
2023-03-22T10:55:03.055Z,5.70
2023-03-22T10:57:31.606Z,5.22
2023-03-22T10:59:58.820Z,5.90
2023-03-22T11:02:26.939Z,5.95
2023-03-22T11:04:56.283Z,5.25
2023-03-22T11:07:28.328Z,5.55
2023-03-22T11:09:59.579Z,6.65
2023-03-22T11:12:26.728Z,5.75
2023-03-22T11:14:54.027Z,5.90
2023-03-22T11:17:25.872Z,5.53
2023-03-22T11:19:58.705Z,5.68
2023-03-22T11:22:35.889Z,5.95
2023-03-22T11:25:04.414Z,5.53
2023-03-22T11:27:36.439Z,5.78
2023-03-22T11:30:29.645Z,5.40
2023-03-22T11:33:09.255Z,5.60
2023-03-22T11:35:37.499Z,5.50
2023-03-22T11:38:04.963Z,6.32
2023-03-22T11:40:33.371Z,5.68
2023-03-22T11:43:12.017Z,5.32
2023-03-22T11:45:42.601Z,5.30
2023-03-22T11:48:11.022Z,5.00
2023-03-22T11:50:39.823Z,5.07
2023-03-22T11:53:09.126Z,4.95
2023-03-22T11:55:37.214Z,5.35
2023-03-22T11:58:05.654Z,5.88
2023-03-22T12:00:34.955Z,5.32
2023-03-22T12:03:05.536Z,4.90
2023-03-22T12:05:34.648Z,5.63
2023-03-22T12:08:05.055Z,5.38
2023-03-22T12:10:34.081Z,5.20
2023-03-22T12:13:04.521Z,5.03
2023-03-22T12:15:33.756Z,5.38
2023-03-22T12:18:13.125Z,5.20
2023-03-22T12:20:40.899Z,4.93
2023-03-22T12:23:16.542Z,5.40
2023-03-22T12:25:47.105Z,5.60
2023-03-22T12:28:16.495Z,5.90
2023-03-22T12:30:53.993Z,13.57
2023-03-22T12:33:27.809Z,25.52
2023-03-22T12:35:57.790Z,21.40
2023-03-22T12:38:34.078Z,16.25
2023-03-22T12:41:03.242Z,15.52
2023-03-22T12:43:47.580Z,11.75
2023-03-22T12:46:28.465Z,9.55
2023-03-22T12:48:55.836Z,10.40
2023-03-22T12:51:23.223Z,15.57
2023-03-22T12:53:55.307Z,14.02
2023-03-22T12:56:24.636Z,11.98
2023-03-22T12:58:53.832Z,21.15
2023-03-22T13:01:39.695Z,29.25
2023-03-22T13:04:40.997Z,24.95
2023-03-22T13:07:14.125Z,18.40
2023-03-22T13:09:45.705Z,18.75
2023-03-22T13:12:16.525Z,19.08
2023-03-22T13:14:49.970Z,28.02
2023-03-22T13:17:23.075Z,30.08
2023-03-22T13:19:56.305Z,29.80
2023-03-22T13:22:30.802Z,27.30
2023-03-22T13:25:06.278Z,27.17
2023-03-22T13:27:53.998Z,24.60
2023-03-22T13:30:21.800Z,20.38
2023-03-22T13:32:56.139Z,20.77
2023-03-22T13:35:28.052Z,18.95
2023-03-22T13:38:01.771Z,16.73
2023-03-22T13:40:32.744Z,16.60
2023-03-22T13:43:11.171Z,16.70
2023-03-22T13:45:57.575Z,15.85
2023-03-22T13:48:45.039Z,16.38
2023-03-22T13:51:15.256Z,14.60
2023-03-22T13:53:44.248Z,13.77
2023-03-22T13:56:13.516Z,12.13
2023-03-22T13:58:41.254Z,10.57
2023-03-22T14:01:37.295Z,11.00
2023-03-22T14:04:10.623Z,12.13
2023-03-22T14:06:46.050Z,10.35
2023-03-22T14:09:24.144Z,11.88
2023-03-22T14:11:57.227Z,10.80
2023-03-22T14:14:27.916Z,10.35
2023-03-22T14:17:06.622Z,8.80
2023-03-22T14:19:35.598Z,9.00
